Domov               UVHVVR             MKGP            O straneh              
ZDRAVSTVENO VARSTVO RASTLIN
  MREŽA AGROMET. POSTAJ
 ► PROGNOSTIČNA OBVESTILA
AGROMETEOROLOŠKI PODATKI -
ARSO
OBVLADOVANJE TVEGANJ ZARADI
NEUGODNIH VREMENSKIH RAZMER
  ► NARAVNE NESREČE
  ► SUŠA/MOČA
  ► NAMAKANJE
  ► ŽLED (gozdarstvo)
KARTOGRAFSKI PRIKAZI
SPLETNE POVEZAVE
PROJEKTI IN PUBLIKACIJE

AGROMETEOROLOŠKA MREŽA: VREMENSKE POSTAJE IN FENOLOŠKA OPAZOVANJA

Pregled podatkov za lokacijo Pradisiol, meteorološka postaja 861649

Pregled senzorjev na lokaciji

ID Ime Zadnja
vrednost
Datum
zadnje
spremembe
Tip
senzorja
4076 Omočenost lista (U) 0 U 24.3.2019 13:00 A730WET
4077 Padavine (mm) 0 mm 24.3.2019 12:59 Rain-O-Matic
4075 Relativna vlaga 2 m (% RH) 38,54 % RH 24.3.2019 12:59 50YA
4074 Temperatura 2 m (°C) 19,7 °C 24.3.2019 13:00 50YA

Pregled podatkov zadnjih 24 ur

Zap.
št.
Datum in čas Pradisiol
Omočenost
lista
Padavine Relativna
vlaga
2
m
Temperatura
2
m
1 24.3.2019 12:30
2 24.3.2019 12:00 0 0 38,5 19,7
3 24.3.2019 11:30 0 0 34,4 20,3
4 24.3.2019 11:00 0 0 33,9 20,2
5 24.3.2019 10:30 0 0 32,7 20,3
6 24.3.2019 10:00 0 0 32,1 20,4
7 24.3.2019 09:30 0 0 34,6 20,4
8 24.3.2019 09:00 0 0 49,4 18
9 24.3.2019 08:30 0 0 63 13,7
10 24.3.2019 08:00 0 0 74,8 9,7
11 24.3.2019 07:30 3 0 87,8 5,5
12 24.3.2019 07:00 10 0 94,6 1,6
13 24.3.2019 06:30 9 0 94,6 0
14 24.3.2019 06:00 6 0 94 -0,2
15 24.3.2019 05:30 3 0 93,4 0
16 24.3.2019 05:00 2 0 92,7 0,5
17 24.3.2019 04:30 1 0 91,3 0,8
18 24.3.2019 04:00 1 0 90,6 1,3
19 24.3.2019 03:30 1 0 89,5 1,7
20 24.3.2019 03:00 1 0 88,2 2,5
21 24.3.2019 02:30 1 0 88,2 2,6
22 24.3.2019 02:00 1 0 90,3 1,9
23 24.3.2019 01:30 0 0 89,6 2,3
24 24.3.2019 01:00 0 0 90,8 1,8
25 24.3.2019 00:30 0 0 90,4 1,6
26 24.3.2019 00:00 0 0 88,9 2,2
27 23.3.2019 23:30 0 0 88,1 2,6
28 23.3.2019 23:00 0 0 85,6 3,2
29 23.3.2019 22:30 0 0 86,3 3,7
30 23.3.2019 22:00 0 0 84,8 4,1
31 23.3.2019 21:30 0 0 83 4,4
32 23.3.2019 21:00 0 0 81,1 5,1
33 23.3.2019 20:30 0 0 77,4 6,1
34 23.3.2019 20:00 0 0 74,7 7
35 23.3.2019 19:30 0 0 68,5 8,9
36 23.3.2019 19:00 0 0 57,3 11,9
37 23.3.2019 18:30 0 0 45,3 15,5
38 23.3.2019 18:00 0 0 35,3 18,9
39 23.3.2019 17:30 0 0 34,6 19,8
40 23.3.2019 17:00 0 0 33,6 20,4
41 23.3.2019 16:30 0 0 33,8 21,2
42 23.3.2019 16:00 0 0 32,7 21,9
43 23.3.2019 15:30 0 0 32 22,4
44 23.3.2019 15:00 0 0 32 22,7
45 23.3.2019 14:30 0 0 31,7 22,7
46 23.3.2019 14:00 0 0 31,4 22,8
47 23.3.2019 13:30 0 0 31,7 22,5
48 23.3.2019 13:00 0 0 32 22,3
© 2011 Ministrstvo za kmetijstvo, gozdarstvo in prehrano. Vse pravice pridržane.